Flight Track Log - Related Links

Times and Time Zones

All times are in EST time to prevent confusion due to time zone crossing. See the EJA829P flight status page for this flight to view local times or setup timezone preferences in your user account.

Time Position Orientation Groundspeed Altitude Reporting Facility
EST Latitude Longitude Course Direction KTS MPH feet Rate Location/Type
Sat 09:39:38 24.7619 -81.0142 338° Northwest 378 435 2,900  Level Miami Center
Sat 09:40:38 24.8342 -81.0464 338° Northwest 229 264 4,600 2,850 Climbing Miami Center
Sat 09:41:38 24.9083 -81.0764 340° North 244 281 8,600 3,500 Climbing Miami Center
Sat 09:42:38 24.9786 -81.1086 337° Northwest 255 293 11,600 2,900 Climbing Miami Center
Sat 09:43:38 25.0592 -81.1411 340° North 284 327 14,400 2,600 Climbing Miami Center
Sat 09:44:38 25.1436 -81.1786 338° Northwest 302 348 16,800 1,800 Climbing Miami Center
Sat 09:45:38 25.2406 -81.2233 337° Northwest 325 374 18,000 600 Climbing Miami Center
Sat 09:46:38 25.3250 -81.2586 339° North 343 395 18,000  Level Miami Center
Sat 09:47:38 25.4261 -81.2989 340° North 365 420 18,000  Level Miami Center
Sat 09:48:38 25.5250 -81.3439 338° Northwest 378 435 18,000  Level Miami Center
Sat 09:49:38 25.6239 -81.3844 340° North 378 435 18,000  Level Miami Center
Sat 09:50:38 25.7292 -81.4300 339° North 378 435 18,000  Level Miami Center
Sat 09:51:38 25.8281 -81.4731 339° North 373 429 18,000 -50 Level Miami Center
Sat 09:52:38 25.9269 -81.5136 340° North 373 429 17,900 -800 Descending Miami Center
Sat 09:53:38 26.0133 -81.5517 338° Northwest 367 422 16,400 -1,700 Descending Miami Center
Sat 09:54:38 26.1081 -81.5925 339° North 367 422 14,500 -2,250 Descending Miami Center
Sat 09:55:38 26.2008 -81.6331 339° North 362 417 11,900 -2,350 Descending Miami Center
Sat 09:56:38 26.2831 -81.6689 339° North 338 389 9,800 -1,500 Descending Miami Center
Sat 09:57:38 26.3633 -81.7044 338° Northwest 315 362 8,900 -400 Descending Miami Center
Sat 09:58:38 26.4394 -81.7378 339° North 298 343 9,000 50 Climbing Miami Center
Sat 09:59:38 26.5300 -81.7786 338° Northwest 303 349 9,000 -650 Level Miami Center
Sat 10:00:38 26.5972 -81.8281 327° Northwest 302 348 7,700 -1,950 Descending Miami Center
Sat 10:01:38 26.6644 -81.8772 327° Northwest 297 342 5,100 -1,850 Descending Miami Center
Sat 10:02:38 26.7294 -81.9267 326° Northwest 286 329 4,000 -550 Descending Miami Center
Sat 10:03:38 26.7778 -81.9775 317° Northwest 276 318 4,000  Level Miami Center
Sat 10:05:35 26.8667 -82.1167 306° West 250 288 4,000  Level Tampa TRACON
Sat 10:06:00 26.8833 -82.1500 299° West 243 280 4,000 -133 Level Tampa TRACON
Sat 10:07:05 26.9167 -82.2000 307° West 227 261 3,800 -912 Descending Tampa TRACON
Sat 10:08:05 26.9667 -82.2667 310° West 241 277 2,100 -947 Descending Tampa TRACON
Sat 10:08:59 26.9833 -82.3167 291° West 199 229 2,000 -211 Descending Tampa TRACON
Sat 10:09:59 27.0167 -82.3667 307° West 192 221 1,700 -300 Descending Tampa TRACON

Login

Don't have an account? Register now (free) for customized features, flight alerts, and more!